createdAt,value
2018-10-09T00:00:01.540Z,12.20
2018-10-09T00:02:31.029Z,12.30
2018-10-09T00:05:00.535Z,12.30
2018-10-09T00:07:30.000Z,12.30
2018-10-09T00:09:59.443Z,12.30
2018-10-09T00:12:28.943Z,12.20
2018-10-09T00:14:58.441Z,12.20
2018-10-09T00:17:27.887Z,12.20
2018-10-09T00:19:57.286Z,12.20
2018-10-09T00:22:26.740Z,12.20
2018-10-09T00:24:56.263Z,12.30
2018-10-09T00:27:25.671Z,12.20
2018-10-09T00:29:55.166Z,12.30
2018-10-09T00:32:24.536Z,12.30
2018-10-09T00:34:54.048Z,12.40
2018-10-09T00:37:23.536Z,12.50
2018-10-09T00:39:52.823Z,12.60
2018-10-09T00:42:22.219Z,12.60
2018-10-09T00:44:51.584Z,12.60
2018-10-09T00:47:20.996Z,12.50
2018-10-09T00:49:50.512Z,12.40
2018-10-09T00:52:20.892Z,12.40
2018-10-09T00:54:50.395Z,12.40
2018-10-09T00:57:20.741Z,12.40
2018-10-09T00:59:50.304Z,12.40
2018-10-09T01:02:19.648Z,12.30
2018-10-09T01:04:49.118Z,12.40
2018-10-09T01:07:18.643Z,12.50
2018-10-09T01:09:48.036Z,12.60
2018-10-09T01:12:17.508Z,12.50
2018-10-09T01:14:47.039Z,12.60
2018-10-09T01:17:16.368Z,12.70
2018-10-09T01:19:45.862Z,12.70
2018-10-09T01:22:15.332Z,12.70
2018-10-09T01:24:44.844Z,12.70
2018-10-09T01:27:14.323Z,12.70
2018-10-09T01:29:43.736Z,12.60
2018-10-09T01:32:13.248Z,12.60
2018-10-09T01:34:42.543Z,12.60
2018-10-09T01:37:12.008Z,12.60
2018-10-09T01:39:41.406Z,12.60
2018-10-09T01:42:10.949Z,12.50
2018-10-09T01:44:40.467Z,12.60
2018-10-09T01:47:09.961Z,12.60
2018-10-09T01:49:39.551Z,12.50
2018-10-09T01:52:08.909Z,12.50
2018-10-09T01:54:38.392Z,12.50
2018-10-09T01:57:07.689Z,12.60
2018-10-09T01:59:37.077Z,12.60
2018-10-09T02:02:06.395Z,12.70
2018-10-09T02:04:35.824Z,12.70
2018-10-09T02:07:05.180Z,12.60
2018-10-09T02:09:34.668Z,12.50
2018-10-09T02:12:04.243Z,12.50
2018-10-09T02:14:33.747Z,12.50
2018-10-09T02:17:03.245Z,12.50
2018-10-09T02:19:32.761Z,12.60
2018-10-09T02:22:02.292Z,12.70
2018-10-09T02:24:31.809Z,12.70
2018-10-09T02:27:01.161Z,12.60
2018-10-09T02:29:30.603Z,12.60
2018-10-09T02:32:00.000Z,12.70
2018-10-09T02:34:29.340Z,12.80
2018-10-09T02:36:59.063Z,12.80
2018-10-09T02:39:28.472Z,12.80
2018-10-09T02:41:57.835Z,12.80
2018-10-09T02:44:27.125Z,12.70
2018-10-09T02:46:56.524Z,12.60
2018-10-09T02:49:25.987Z,12.60
2018-10-09T02:51:55.395Z,12.60
2018-10-09T02:54:24.904Z,12.60
2018-10-09T02:56:54.424Z,12.60
2018-10-09T02:59:23.787Z,12.50
2018-10-09T03:01:53.374Z,12.50
2018-10-09T03:04:22.884Z,12.40
2018-10-09T03:06:52.243Z,12.40
2018-10-09T03:09:21.773Z,12.40
2018-10-09T03:11:51.280Z,12.40
2018-10-09T03:14:21.260Z,12.40
2018-10-09T03:16:50.783Z,12.40
2018-10-09T03:19:21.215Z,12.40
2018-10-09T03:21:50.671Z,12.40
2018-10-09T03:24:20.197Z,12.50
2018-10-09T03:26:49.568Z,12.40
2018-10-09T03:29:18.944Z,12.40
2018-10-09T03:31:48.340Z,12.40
2018-10-09T03:34:17.710Z,12.40
2018-10-09T03:36:47.075Z,12.30
2018-10-09T03:39:16.599Z,12.30
2018-10-09T03:41:45.986Z,12.30
2018-10-09T03:44:15.426Z,12.30
2018-10-09T03:46:44.981Z,12.40
2018-10-09T03:49:14.468Z,12.40
2018-10-09T03:51:43.937Z,12.40
2018-10-09T03:54:13.539Z,12.40
2018-10-09T03:56:42.919Z,12.40
2018-10-09T03:59:12.386Z,12.30
2018-10-09T04:01:42.003Z,12.40
2018-10-09T04:04:11.439Z,12.40
2018-10-09T04:06:40.857Z,12.40
2018-10-09T04:09:12.593Z,12.40
2018-10-09T04:11:42.728Z,12.40
2018-10-09T04:14:12.184Z,12.30
2018-10-09T04:16:41.673Z,12.40
2018-10-09T04:19:11.237Z,12.30
2018-10-09T04:21:40.716Z,12.30
2018-10-09T04:24:10.088Z,12.40
2018-10-09T04:26:39.491Z,12.40
2018-10-09T04:29:08.947Z,12.40
2018-10-09T04:31:38.323Z,12.40
2018-10-09T04:34:07.710Z,12.40
2018-10-09T04:36:37.016Z,12.40
2018-10-09T04:39:08.384Z,12.50
2018-10-09T04:41:37.927Z,12.50
2018-10-09T04:44:07.477Z,12.50
2018-10-09T04:46:36.948Z,12.40
2018-10-09T04:49:06.377Z,12.40
2018-10-09T04:51:35.836Z,12.40
2018-10-09T04:54:05.352Z,12.40
2018-10-09T04:56:34.825Z,12.40
2018-10-09T04:59:04.296Z,12.40
2018-10-09T05:01:33.891Z,12.50
2018-10-09T05:04:03.406Z,12.60
2018-10-09T05:06:32.959Z,12.60
2018-10-09T05:09:02.523Z,12.50
2018-10-09T05:11:31.888Z,12.50
2018-10-09T05:14:01.244Z,12.40
2018-10-09T05:16:30.778Z,12.40
2018-10-09T05:19:00.309Z,12.50
2018-10-09T05:21:29.632Z,12.50
2018-10-09T05:23:59.004Z,12.50
2018-10-09T05:26:28.447Z,12.50
2018-10-09T05:28:57.916Z,12.50
2018-10-09T05:31:27.361Z,12.50
2018-10-09T05:33:56.784Z,12.50
2018-10-09T05:36:26.103Z,12.40
2018-10-09T05:38:55.587Z,12.40
2018-10-09T05:41:25.109Z,12.50
2018-10-09T05:43:54.676Z,12.40
2018-10-09T05:46:24.244Z,12.40
2018-10-09T05:48:53.727Z,12.40
2018-10-09T05:51:23.241Z,12.40
2018-10-09T05:53:52.679Z,12.40
2018-10-09T05:56:22.064Z,12.40
2018-10-09T05:58:51.567Z,12.40
2018-10-09T06:01:21.736Z,12.40
2018-10-09T06:03:51.103Z,12.40
2018-10-09T06:06:21.559Z,12.50
2018-10-09T06:08:51.003Z,12.50
2018-10-09T06:11:20.452Z,12.50
2018-10-09T06:13:49.948Z,12.50
2018-10-09T06:16:19.510Z,12.50
2018-10-09T06:18:48.990Z,12.50
2018-10-09T06:21:18.481Z,12.40
2018-10-09T06:23:47.825Z,12.50
2018-10-09T06:26:17.291Z,12.40
2018-10-09T06:28:47.041Z,12.50
2018-10-09T06:31:16.388Z,12.50
2018-10-09T06:33:45.933Z,12.50
2018-10-09T06:36:15.340Z,12.50
2018-10-09T06:38:44.708Z,12.50
2018-10-09T06:41:14.129Z,12.60
2018-10-09T06:43:43.600Z,12.60
2018-10-09T06:46:17.349Z,12.70
2018-10-09T06:48:47.938Z,12.70
2018-10-09T06:51:17.541Z,12.80
2018-10-09T06:53:47.228Z,12.90
2018-10-09T06:56:16.505Z,13.00
2018-10-09T06:58:45.976Z,13.00
2018-10-09T07:01:15.422Z,12.90
2018-10-09T07:03:44.788Z,12.80
2018-10-09T07:06:14.345Z,12.90
2018-10-09T07:08:43.763Z,13.00
2018-10-09T07:11:13.380Z,13.00
2018-10-09T07:13:42.805Z,13.00
2018-10-09T07:16:12.274Z,13.10
2018-10-09T07:18:41.629Z,13.10
2018-10-09T07:21:11.076Z,13.10
2018-10-09T07:23:40.533Z,13.20
2018-10-09T07:26:09.905Z,13.10
2018-10-09T07:28:39.382Z,13.10
2018-10-09T07:31:08.821Z,13.20
2018-10-09T07:33:38.344Z,13.30
2018-10-09T07:36:07.800Z,13.30
2018-10-09T07:38:37.172Z,13.30
2018-10-09T07:41:06.916Z,13.30
2018-10-09T07:43:36.568Z,13.30
2018-10-09T07:46:06.151Z,13.30
2018-10-09T07:48:35.621Z,13.40
2018-10-09T07:51:05.034Z,13.40
2018-10-09T07:53:34.660Z,13.40
2018-10-09T07:56:04.007Z,13.40
2018-10-09T07:58:33.578Z,13.40
2018-10-09T08:01:02.945Z,13.30
2018-10-09T08:03:32.300Z,13.40
2018-10-09T08:06:01.614Z,13.40
2018-10-09T08:08:30.936Z,13.50
2018-10-09T08:11:00.505Z,13.60
2018-10-09T08:13:32.618Z,13.60
2018-10-09T08:16:02.153Z,13.60
2018-10-09T08:18:31.681Z,13.60
2018-10-09T08:21:01.235Z,13.70
2018-10-09T08:23:30.730Z,13.70
2018-10-09T08:26:00.160Z,13.60
2018-10-09T08:28:30.048Z,13.70
2018-10-09T08:31:00.084Z,13.80
2018-10-09T08:33:29.609Z,13.80
2018-10-09T08:35:59.084Z,13.90
2018-10-09T08:38:28.589Z,13.90
2018-10-09T08:40:58.079Z,14.00
2018-10-09T08:43:27.429Z,14.00
2018-10-09T08:45:56.856Z,13.90
2018-10-09T08:48:26.318Z,13.90
2018-10-09T08:50:55.789Z,13.90
2018-10-09T08:53:25.152Z,14.00
2018-10-09T08:55:54.529Z,14.00
2018-10-09T08:58:23.947Z,14.00
2018-10-09T09:00:53.367Z,14.10
2018-10-09T09:03:22.774Z,14.10
2018-10-09T09:05:52.348Z,14.00
2018-10-09T09:08:22.320Z,14.00
2018-10-09T09:10:51.943Z,14.00
2018-10-09T09:13:22.299Z,14.00
2018-10-09T09:15:51.793Z,14.00
2018-10-09T09:18:22.311Z,14.00
2018-10-09T09:20:51.805Z,13.90
2018-10-09T09:23:22.065Z,13.80
2018-10-09T09:25:51.440Z,13.90
2018-10-09T09:28:20.889Z,13.90
2018-10-09T09:30:50.304Z,14.00
2018-10-09T09:33:19.827Z,14.00
2018-10-09T09:35:49.159Z,14.00
2018-10-09T09:38:18.622Z,13.90
2018-10-09T09:40:48.611Z,13.90
2018-10-09T09:43:18.176Z,13.90
2018-10-09T09:45:47.850Z,14.00
2018-10-09T09:48:17.364Z,14.00
2018-10-09T09:50:46.834Z,14.10
2018-10-09T09:53:16.360Z,14.10
2018-10-09T09:55:45.938Z,14.20
2018-10-09T09:58:15.521Z,14.10
2018-10-09T10:00:51.344Z,14.10
2018-10-09T10:03:20.732Z,14.10
2018-10-09T10:05:50.074Z,14.20
2018-10-09T10:08:21.826Z,14.20
2018-10-09T10:10:51.442Z,14.20
2018-10-09T10:13:21.036Z,14.20
2018-10-09T10:15:50.497Z,14.20
2018-10-09T10:18:19.881Z,14.30
2018-10-09T10:20:49.316Z,14.20
2018-10-09T10:23:18.932Z,14.30
2018-10-09T10:25:48.544Z,14.30
2018-10-09T10:28:18.144Z,14.30
2018-10-09T10:30:47.668Z,14.20
2018-10-09T10:33:17.174Z,14.20
2018-10-09T10:35:46.641Z,14.20
2018-10-09T10:38:15.903Z,14.20
2018-10-09T10:40:45.425Z,14.20
2018-10-09T10:43:14.739Z,14.20
2018-10-09T10:45:44.203Z,14.20
2018-10-09T10:48:13.683Z,14.20
2018-10-09T10:50:43.215Z,14.30
2018-10-09T10:53:12.628Z,14.20
2018-10-09T10:55:42.037Z,14.30
2018-10-09T10:58:11.388Z,14.50
2018-10-09T11:00:40.964Z,14.50
2018-10-09T11:03:10.480Z,14.60
2018-10-09T11:05:39.888Z,14.70
2018-10-09T11:08:09.489Z,14.60
2018-10-09T11:10:38.820Z,14.60
2018-10-09T11:13:08.243Z,14.60
2018-10-09T11:15:37.607Z,14.60
2018-10-09T11:18:07.074Z,14.60
2018-10-09T11:20:36.540Z,14.50
2018-10-09T11:23:06.129Z,14.50
2018-10-09T11:25:35.459Z,14.50
2018-10-09T11:28:04.877Z,14.50
2018-10-09T11:30:34.472Z,14.50
2018-10-09T11:33:04.012Z,14.50
2018-10-09T11:35:33.561Z,14.60
2018-10-09T11:38:03.126Z,14.60
2018-10-09T11:40:32.507Z,14.60
2018-10-09T11:43:02.143Z,14.50
2018-10-09T11:45:31.656Z,14.50
2018-10-09T11:48:01.020Z,14.50
2018-10-09T11:50:30.440Z,14.50
2018-10-09T11:53:00.516Z,14.60
2018-10-09T11:55:29.900Z,14.70
2018-10-09T11:57:59.403Z,14.80
2018-10-09T12:00:29.763Z,14.90
2018-10-09T12:02:59.122Z,14.90
2018-10-09T12:05:28.476Z,15.00
2018-10-09T12:07:57.832Z,15.10
2018-10-09T12:10:27.269Z,15.00
2018-10-09T12:12:56.685Z,15.00
2018-10-09T12:15:26.278Z,15.00
2018-10-09T12:17:55.769Z,15.10
2018-10-09T12:20:25.256Z,15.10
2018-10-09T12:22:54.652Z,15.10
2018-10-09T12:25:24.028Z,15.10
2018-10-09T12:27:53.533Z,15.20
2018-10-09T12:30:23.026Z,15.30
2018-10-09T12:32:52.482Z,15.20
2018-10-09T12:35:22.933Z,15.20
2018-10-09T12:37:52.355Z,15.30
2018-10-09T12:40:21.791Z,15.40
2018-10-09T12:42:51.152Z,15.40
2018-10-09T12:45:20.517Z,15.50
2018-10-09T12:47:49.874Z,15.50
2018-10-09T12:50:19.451Z,15.60
2018-10-09T12:52:48.872Z,15.70
2018-10-09T12:55:18.284Z,15.70
2018-10-09T12:57:47.829Z,15.70
2018-10-09T13:00:17.388Z,15.70
2018-10-09T13:02:46.911Z,15.70
2018-10-09T13:05:16.426Z,15.70
2018-10-09T13:07:45.959Z,15.60
2018-10-09T13:10:15.429Z,15.60
2018-10-09T13:12:44.904Z,15.60
2018-10-09T13:15:14.280Z,15.60
2018-10-09T13:17:43.785Z,15.70
2018-10-09T13:20:13.272Z,15.70
2018-10-09T13:22:42.724Z,15.70
2018-10-09T13:25:12.112Z,15.70
2018-10-09T13:27:41.508Z,15.70
2018-10-09T13:30:10.865Z,15.60
2018-10-09T13:32:40.375Z,15.70
2018-10-09T13:35:09.823Z,15.60
2018-10-09T13:37:39.259Z,15.40
2018-10-09T13:40:08.841Z,15.50
2018-10-09T13:42:38.199Z,15.50
2018-10-09T13:45:07.639Z,15.50
2018-10-09T13:47:37.229Z,15.60
2018-10-09T13:50:06.455Z,15.50
2018-10-09T13:52:35.811Z,15.50
2018-10-09T13:55:05.357Z,15.40
2018-10-09T13:57:34.732Z,15.40
2018-10-09T14:00:04.313Z,15.40
2018-10-09T14:02:33.724Z,15.30
2018-10-09T14:05:03.105Z,15.30
2018-10-09T14:07:32.621Z,15.40
2018-10-09T14:10:02.072Z,15.40
2018-10-09T14:12:31.594Z,15.40
2018-10-09T14:15:01.090Z,15.40
2018-10-09T14:17:30.688Z,15.50
2018-10-09T14:20:00.226Z,15.50
2018-10-09T14:22:29.661Z,15.50
2018-10-09T14:24:59.176Z,15.50
2018-10-09T14:27:28.683Z,15.50
2018-10-09T14:29:58.206Z,15.60
2018-10-09T14:32:27.719Z,15.50
2018-10-09T14:34:57.177Z,15.40
2018-10-09T14:37:26.545Z,15.40
2018-10-09T14:39:55.887Z,15.40
2018-10-09T14:42:25.257Z,15.50
2018-10-09T14:44:54.608Z,15.50
2018-10-09T14:47:23.911Z,15.60
2018-10-09T14:49:53.252Z,15.60
2018-10-09T14:52:23.456Z,15.50
2018-10-09T14:54:52.960Z,15.50
2018-10-09T14:57:23.347Z,15.50
2018-10-09T14:59:53.103Z,15.50
2018-10-09T15:02:23.597Z,15.50
2018-10-09T15:04:53.034Z,15.50
2018-10-09T15:07:23.434Z,15.50
2018-10-09T15:09:52.967Z,15.40
2018-10-09T15:12:23.435Z,15.40
2018-10-09T15:14:52.862Z,15.50
2018-10-09T15:17:22.256Z,15.50
2018-10-09T15:19:51.625Z,15.50
2018-10-09T15:22:21.029Z,15.60
2018-10-09T15:24:50.442Z,15.60
2018-10-09T15:27:19.813Z,15.60
2018-10-09T15:29:49.352Z,15.60
2018-10-09T15:32:18.771Z,15.60
2018-10-09T15:34:48.171Z,15.50
2018-10-09T15:37:17.688Z,15.60
2018-10-09T15:39:47.244Z,15.60
2018-10-09T15:42:16.732Z,15.50
2018-10-09T15:44:46.224Z,15.40
2018-10-09T15:47:15.850Z,15.50
2018-10-09T15:49:45.151Z,15.50
2018-10-09T15:52:14.683Z,15.40
2018-10-09T15:54:44.076Z,15.40
2018-10-09T15:57:13.675Z,15.30
2018-10-09T15:59:46.203Z,15.40
2018-10-09T16:02:15.573Z,15.40
2018-10-09T16:04:45.332Z,15.40
2018-10-09T16:07:14.701Z,15.30
2018-10-09T16:09:44.268Z,15.30
2018-10-09T16:12:13.792Z,15.20
2018-10-09T16:14:43.473Z,15.20
2018-10-09T16:17:13.078Z,15.30
2018-10-09T16:19:42.487Z,15.20
2018-10-09T16:22:12.019Z,15.20
2018-10-09T16:24:41.692Z,15.10
2018-10-09T16:27:11.464Z,15.10
2018-10-09T16:29:41.168Z,15.10
2018-10-09T16:32:10.792Z,15.10
2018-10-09T16:34:40.730Z,15.10
2018-10-09T16:37:10.372Z,15.00
2018-10-09T16:39:39.852Z,14.90
2018-10-09T16:42:09.519Z,14.90
2018-10-09T16:44:38.846Z,15.00
2018-10-09T16:47:08.273Z,15.00
2018-10-09T16:49:38.616Z,15.10
2018-10-09T16:52:08.236Z,15.10
2018-10-09T16:54:37.839Z,15.10
2018-10-09T16:57:07.345Z,15.20
2018-10-09T16:59:36.875Z,15.20
2018-10-09T17:02:06.704Z,15.20
2018-10-09T17:04:36.224Z,15.20
2018-10-09T17:07:05.581Z,15.10
2018-10-09T17:09:35.184Z,15.00
2018-10-09T17:12:04.599Z,15.00
2018-10-09T17:14:34.661Z,15.00
2018-10-09T17:17:04.128Z,15.00
2018-10-09T17:19:33.610Z,15.00
2018-10-09T17:22:03.027Z,14.90
2018-10-09T17:24:32.684Z,14.90
2018-10-09T17:27:02.099Z,15.00
2018-10-09T17:29:32.272Z,15.00
2018-10-09T17:32:01.837Z,14.90
2018-10-09T17:34:31.742Z,14.90
2018-10-09T17:37:01.132Z,14.80
2018-10-09T17:39:30.586Z,14.80
2018-10-09T17:42:00.198Z,14.90
2018-10-09T17:44:29.784Z,15.00
2018-10-09T17:47:03.594Z,15.00
2018-10-09T17:49:33.122Z,14.90
2018-10-09T17:52:02.732Z,14.90
2018-10-09T17:54:32.245Z,14.90
2018-10-09T17:57:01.697Z,14.90
2018-10-09T17:59:31.242Z,14.90
2018-10-09T18:02:00.786Z,14.90
2018-10-09T18:04:30.144Z,14.90
2018-10-09T18:06:59.493Z,14.90
2018-10-09T18:09:29.005Z,15.00
2018-10-09T18:11:58.344Z,15.00
2018-10-09T18:14:27.981Z,15.00
2018-10-09T18:16:57.360Z,15.00
2018-10-09T18:19:26.772Z,15.00
2018-10-09T18:21:56.124Z,14.90
2018-10-09T18:24:25.661Z,14.90
2018-10-09T18:29:18.041Z,15.00
2018-10-09T18:31:47.472Z,14.90
2018-10-09T18:34:17.401Z,14.90
2018-10-09T18:36:46.868Z,14.90
2018-10-09T18:39:17.028Z,15.00
2018-10-09T18:41:47.127Z,15.00
2018-10-09T18:44:16.540Z,15.00
2018-10-09T18:46:45.835Z,15.00
2018-10-09T18:49:15.324Z,15.00
2018-10-09T18:51:44.698Z,15.10
2018-10-09T18:54:14.241Z,15.10
2018-10-09T18:56:43.539Z,15.20
2018-10-09T18:59:13.028Z,15.20
2018-10-09T19:01:42.444Z,15.10
2018-10-09T19:04:12.058Z,15.00
2018-10-09T19:06:41.617Z,15.00
2018-10-09T19:09:12.515Z,14.90
2018-10-09T19:11:41.920Z,14.90
2018-10-09T19:14:11.930Z,14.80
2018-10-09T19:16:41.407Z,14.80
2018-10-09T19:19:10.892Z,14.90
2018-10-09T19:21:40.272Z,14.90
2018-10-09T19:24:09.605Z,14.90
2018-10-09T19:26:38.975Z,14.90
2018-10-09T19:29:08.340Z,14.90
2018-10-09T19:31:37.799Z,15.00
2018-10-09T19:34:07.445Z,15.00
2018-10-09T19:36:37.137Z,15.00
2018-10-09T19:39:09.639Z,15.00
2018-10-09T19:41:39.239Z,15.10
2018-10-09T19:44:08.874Z,15.00
2018-10-09T19:46:38.833Z,15.10
2018-10-09T19:49:08.407Z,15.10
2018-10-09T19:51:38.199Z,15.20
2018-10-09T19:54:07.691Z,15.20
2018-10-09T19:56:37.226Z,15.20
2018-10-09T19:59:06.859Z,15.20
2018-10-09T20:01:36.533Z,15.10
2018-10-09T20:04:06.255Z,15.20
2018-10-09T20:06:35.722Z,15.00
2018-10-09T20:09:09.253Z,15.00
2018-10-09T20:11:38.811Z,14.90
2018-10-09T20:14:09.738Z,14.90
2018-10-09T20:16:39.268Z,14.80
2018-10-09T20:19:09.831Z,14.80
2018-10-09T20:21:39.645Z,14.80
2018-10-09T20:24:09.344Z,14.80
2018-10-09T20:26:39.005Z,14.90
2018-10-09T20:29:08.656Z,14.90
2018-10-09T20:31:38.158Z,14.90
2018-10-09T20:34:07.804Z,14.90
2018-10-09T20:36:37.373Z,14.90
2018-10-09T20:39:07.921Z,14.90
2018-10-09T20:41:37.520Z,15.00
2018-10-09T20:44:07.039Z,14.90
2018-10-09T20:46:36.516Z,14.90
2018-10-09T20:49:06.063Z,14.80
2018-10-09T20:51:35.548Z,14.80
2018-10-09T20:54:05.080Z,14.80
2018-10-09T20:56:34.415Z,14.90
2018-10-09T20:59:03.892Z,14.80
2018-10-09T21:01:33.340Z,14.70
2018-10-09T21:04:02.691Z,14.80
2018-10-09T21:06:32.023Z,14.80
2018-10-09T21:09:01.462Z,14.90
2018-10-09T21:11:30.976Z,14.90
2018-10-09T21:14:00.296Z,14.80
2018-10-09T21:16:29.746Z,14.80
2018-10-09T21:18:59.211Z,14.70
2018-10-09T21:21:28.556Z,14.70
2018-10-09T21:23:58.092Z,14.70
2018-10-09T21:26:27.480Z,14.70
2018-10-09T21:28:57.130Z,14.70
2018-10-09T21:31:26.448Z,14.70
2018-10-09T21:33:55.840Z,14.70
2018-10-09T21:36:26.162Z,14.70
2018-10-09T21:38:55.511Z,14.60
2018-10-09T21:41:24.981Z,14.70
2018-10-09T21:43:54.439Z,14.70
2018-10-09T21:46:24.836Z,14.70
2018-10-09T21:48:54.344Z,14.60
2018-10-09T21:51:24.756Z,14.70
2018-10-09T21:53:54.115Z,14.70
2018-10-09T21:56:23.607Z,14.60
2018-10-09T21:58:53.083Z,14.60
2018-10-09T22:01:22.580Z,14.50
2018-10-09T22:03:52.029Z,14.50
2018-10-09T22:06:21.483Z,14.50
2018-10-09T22:08:51.344Z,14.50
2018-10-09T22:11:20.873Z,14.40
2018-10-09T22:13:50.384Z,14.40
2018-10-09T22:16:19.904Z,14.40
2018-10-09T22:18:49.425Z,14.40
2018-10-09T22:21:18.743Z,14.50
2018-10-09T22:23:48.223Z,14.50
2018-10-09T22:26:17.750Z,14.50
2018-10-09T22:28:47.232Z,14.40
2018-10-09T22:31:16.560Z,14.50
2018-10-09T22:33:46.016Z,14.40
2018-10-09T22:36:15.351Z,14.40
2018-10-09T22:38:44.836Z,14.30
2018-10-09T22:41:14.307Z,14.20
2018-10-09T22:43:44.156Z,14.30
2018-10-09T22:46:13.565Z,14.20
2018-10-09T22:48:42.999Z,14.30
2018-10-09T22:51:12.531Z,14.30
2018-10-09T22:53:41.903Z,14.40
2018-10-09T22:56:11.380Z,14.40
2018-10-09T22:58:40.771Z,14.50
2018-10-09T23:01:10.255Z,14.50
2018-10-09T23:03:39.679Z,14.50
2018-10-09T23:06:09.007Z,14.50
2018-10-09T23:08:38.439Z,14.60
2018-10-09T23:11:08.515Z,14.50
2018-10-09T23:13:37.935Z,14.30
2018-10-09T23:16:07.709Z,14.30
2018-10-09T23:18:37.073Z,14.40
2018-10-09T23:21:06.877Z,14.30
2018-10-09T23:23:36.265Z,14.20
2018-10-09T23:26:05.745Z,14.20
2018-10-09T23:28:35.063Z,14.20
2018-10-09T23:31:04.624Z,14.20
2018-10-09T23:33:34.192Z,14.30
2018-10-09T23:36:03.732Z,14.20
2018-10-09T23:38:33.089Z,14.10
2018-10-09T23:41:02.600Z,14.10
2018-10-09T23:43:31.973Z,14.10
2018-10-09T23:46:01.316Z,14.20
2018-10-09T23:48:30.784Z,14.00
2018-10-09T23:51:00.122Z,14.00
2018-10-09T23:53:29.601Z,14.10
2018-10-09T23:55:59.011Z,14.10
2018-10-09T23:58:28.525Z,14.10
